Time;durP1;ratioP1;P1;durP2;ratioP2;P2;SDS_P1;SDS_P2;PMS_P1;PMS_P2;Temp;Humidity;BMP_temperature;BMP_pressure;BME280_temperature;BME280_humidity;BME280_pressure;Samples;Min_cycle;Max_cycle;Signal;HPM_P1;HPM_P2
2023/12/02 00:01:20;;;;;;;42.83;20.20;;;;;;;-144.57;100.00;62443.72;5028770;28;20167;-59
2023/12/02 00:03:46;;;;;;;35.55;17.65;;;;;;;-144.57;100.00;62443.72;5013723;28;20128;-60
2023/12/02 00:06:12;;;;;;;39.70;18.05;;;;;;;-144.57;100.00;62443.72;4995828;28;20038;-60
2023/12/02 00:08:37;;;;;;;40.10;19.15;;;;;;;-144.57;100.00;62443.72;5011269;28;20038;-58
2023/12/02 00:11:03;;;;;;;44.60;19.27;;;;;;;-144.57;100.00;62443.72;5012943;28;20092;-59
2023/12/02 00:13:29;;;;;;;45.13;19.98;;;;;;;-144.57;100.00;62443.72;5012950;28;20097;-59
2023/12/02 00:15:55;;;;;;;49.55;21.42;;;;;;;-144.57;100.00;62443.72;5013224;28;20096;-60
2023/12/02 00:18:20;;;;;;;50.38;21.83;;;;;;;-144.57;100.00;62443.72;5012094;28;20384;-57
2023/12/02 00:20:46;;;;;;;45.80;22.23;;;;;;;-144.57;100.00;62443.72;5011396;28;20529;-58
2023/12/02 00:23:12;;;;;;;39.60;20.65;;;;;;;-144.57;100.00;62443.72;5013310;28;20060;-58
2023/12/02 00:25:37;;;;;;;45.22;19.45;;;;;;;-144.57;100.00;62443.72;5012954;28;20050;-60
2023/12/02 00:28:03;;;;;;;38.75;18.88;;;;;;;-144.57;100.00;62443.72;5013077;28;20380;-59
2023/12/02 00:30:29;;;;;;;40.53;19.08;;;;;;;-144.57;100.00;62443.72;5012545;28;20049;-60
2023/12/02 00:32:54;;;;;;;42.95;19.23;;;;;;;-144.57;100.00;62443.72;5012980;28;20038;-59
2023/12/02 00:35:20;;;;;;;42.38;19.63;;;;;;;-144.57;100.00;62443.72;5012928;28;20538;-61
2023/12/02 00:37:46;;;;;;;38.45;19.02;;;;;;;-144.57;100.00;62443.72;4994916;28;20042;-59
2023/12/02 00:40:11;;;;;;;46.05;19.95;;;;;;;-144.57;100.00;62443.72;5027700;28;20573;-60
2023/12/02 00:42:37;;;;;;;41.65;19.27;;;;;;;-144.57;100.00;62443.72;5011484;28;20096;-57
2023/12/02 00:45:04;;;;;;;50.53;22.63;;;;;;;-144.57;100.00;62443.72;5012702;28;20053;-59
2023/12/02 00:47:30;;;;;;;42.90;19.95;;;;;;;-144.57;100.00;62443.72;5012730;28;20451;-57
2023/12/02 00:49:55;;;;;;;47.90;21.27;;;;;;;-144.57;100.00;62443.72;5012053;28;20101;-58
2023/12/02 00:52:21;;;;;;;41.95;19.75;;;;;;;-144.57;100.00;62443.72;5011303;28;20416;-59
2023/12/02 00:54:47;;;;;;;44.92;20.08;;;;;;;-144.57;100.00;62443.72;5012623;28;20042;-60
2023/12/02 00:57:12;;;;;;;42.38;20.15;;;;;;;-144.57;100.00;62443.72;5012349;28;20056;-58
2023/12/02 00:59:38;;;;;;;40.80;18.50;;;;;;;-144.57;100.00;62443.72;5011056;28;20084;-61
2023/12/02 01:02:06;;;;;;;45.75;20.95;;;;;;;-144.57;100.00;62443.72;5011032;28;20396;-58
2023/12/02 01:04:32;;;;;;;44.55;19.63;;;;;;;-144.57;100.00;62443.72;5012716;28;20411;-59
2023/12/02 01:06:58;;;;;;;40.00;19.15;;;;;;;-144.57;100.00;62443.72;5013109;28;20041;-58
2023/12/02 01:09:24;;;;;;;42.67;18.17;;;;;;;-144.57;100.00;62443.72;5012056;28;20458;-58
2023/12/02 01:11:50;;;;;;;49.00;22.67;;;;;;;-144.57;100.00;62443.72;5011807;28;20069;-57
2023/12/02 01:14:16;;;;;;;42.80;20.52;;;;;;;-144.57;100.00;62443.72;5013262;28;20346;-60
2023/12/02 01:16:41;;;;;;;49.33;21.85;;;;;;;-144.57;100.00;62443.72;5027701;28;20092;-59
2023/12/02 01:19:07;;;;;;;46.35;18.75;;;;;;;-144.57;100.00;62443.72;5010924;28;20522;-53
2023/12/02 01:21:33;;;;;;;41.70;18.77;;;;;;;-144.57;100.00;62443.72;5010517;28;20645;-56
2023/12/02 01:23:59;;;;;;;47.85;21.35;;;;;;;-144.57;100.00;62443.72;5010284;28;20076;-59
2023/12/02 01:26:24;;;;;;;49.38;19.92;;;;;;;-144.57;100.00;62443.72;5010320;28;20054;-59
2023/12/02 01:28:50;;;;;;;46.55;19.45;;;;;;;-144.57;100.00;62443.72;5009658;28;20054;-59
2023/12/02 01:31:16;;;;;;;44.42;20.85;;;;;;;-144.57;100.00;62443.72;5011539;28;20046;-59
2023/12/02 01:33:42;;;;;;;47.80;22.25;;;;;;;-144.57;100.00;62443.72;5012859;28;20049;-59
2023/12/02 01:36:13;;;;;;;67.78;29.23;;;;;;;-144.57;100.00;62443.72;5012325;28;20050;-59
2023/12/02 01:38:39;;;;;;;58.05;25.25;;;;;;;-144.57;100.00;62443.72;5012630;28;20104;-55
2023/12/02 01:41:05;;;;;;;55.95;24.40;;;;;;;-144.57;100.00;62443.72;5012619;28;20042;-58
2023/12/02 01:43:31;;;;;;;49.03;21.95;;;;;;;-144.57;100.00;62443.72;5011864;28;20420;-56
2023/12/02 01:45:56;;;;;;;53.15;22.08;;;;;;;-144.57;100.00;62443.72;5012161;28;20496;-59
2023/12/02 01:48:29;;;;;;;48.53;22.42;;;;;;;-144.57;100.00;62443.72;5011629;28;20069;-58
2023/12/02 01:50:56;;;;;;;58.28;24.40;;;;;;;-144.57;100.00;62443.72;5011267;28;20042;-56
2023/12/02 01:53:21;;;;;;;60.03;26.33;;;;;;;-144.57;100.00;62443.72;5011779;28;20479;-58
2023/12/02 01:55:47;;;;;;;48.10;21.98;;;;;;;-144.57;100.00;62443.72;5011687;28;20046;-59
2023/12/02 01:58:13;;;;;;;45.50;21.42;;;;;;;-144.57;100.00;62443.72;4999580;28;20428;-59
2023/12/02 02:00:38;;;;;;;48.20;22.65;;;;;;;-144.57;100.00;62443.72;5009441;28;20076;-58
2023/12/02 02:03:04;;;;;;;49.03;21.17;;;;;;;-144.57;100.00;62443.72;5025508;28;20488;-57
2023/12/02 02:05:30;;;;;;;49.05;21.48;;;;;;;-144.57;100.00;62443.72;5010970;28;20129;-59
2023/12/02 02:07:56;;;;;;;50.83;21.70;;;;;;;-144.57;100.00;62443.72;5026024;28;20048;-58
2023/12/02 02:10:22;;;;;;;44.75;21.90;;;;;;;-144.57;100.00;62443.72;5010468;28;20415;-60
2023/12/02 02:12:48;;;;;;;47.00;21.77;;;;;;;-144.57;100.00;62443.72;5009284;28;20042;-57
2023/12/02 02:15:14;;;;;;;50.40;22.48;;;;;;;-144.57;100.00;62443.72;5009651;28;20137;-60
2023/12/02 02:17:40;;;;;;;51.88;22.95;;;;;;;-144.57;100.00;62443.72;4992993;28;20125;-57
2023/12/02 02:20:26;;;;;;;45.77;22.37;;;;;;;-144.57;100.00;62443.72;4954782;28;1187368;-58
2023/12/02 02:22:51;;;;;;;63.67;26.55;;;;;;;-144.57;100.00;62443.72;5010022;28;20462;-59
2023/12/02 02:25:17;;;;;;;49.80;23.83;;;;;;;-144.57;100.00;62443.72;5011331;28;20057;-58
2023/12/02 02:27:43;;;;;;;45.53;22.48;;;;;;;-144.57;100.00;62443.72;5026613;28;20132;-57
2023/12/02 02:30:09;;;;;;;51.47;23.95;;;;;;;-144.57;100.00;62443.72;5011167;28;20129;-60
2023/12/02 02:32:35;;;;;;;50.10;23.77;;;;;;;-144.57;100.00;62443.72;5014278;28;20165;-58
2023/12/02 02:35:01;;;;;;;54.75;24.15;;;;;;;-144.57;100.00;62443.72;5015194;28;20460;-57
2023/12/02 02:37:29;;;;;;;54.92;24.35;;;;;;;-144.57;100.00;62443.72;5015159;28;20042;-60
2023/12/02 02:39:54;;;;;;;55.60;25.70;;;;;;;-144.57;100.00;62443.72;5015183;28;20533;-57
2023/12/02 02:42:20;;;;;;;62.03;29.30;;;;;;;-144.57;100.00;62443.72;5015144;28;20049;-57
2023/12/02 02:44:46;;;;;;;61.05;26.48;;;;;;;-144.57;100.00;62443.72;5013602;28;20042;-59
2023/12/02 02:47:11;;;;;;;62.42;28.80;;;;;;;-144.57;100.00;62443.72;5015011;28;20077;-56
2023/12/02 02:49:37;;;;;;;55.72;24.05;;;;;;;-144.57;100.00;62443.72;5014639;28;20046;-58
2023/12/02 02:52:03;;;;;;;44.80;22.20;;;;;;;-144.57;100.00;62443.72;5014916;28;20048;-58
2023/12/02 02:54:29;;;;;;;46.35;20.98;;;;;;;-144.57;100.00;62443.72;5014923;28;20050;-59
2023/12/02 02:56:54;;;;;;;41.60;20.52;;;;;;;-144.57;100.00;62443.72;5014827;28;20550;-58
2023/12/02 02:59:20;;;;;;;47.40;23.33;;;;;;;-144.57;100.00;62443.72;5012803;28;20573;-57
2023/12/02 03:01:47;;;;;;;48.40;20.75;;;;;;;-144.57;100.00;62443.72;5014551;28;20034;-58
2023/12/02 03:04:13;;;;;;;48.53;24.33;;;;;;;-144.57;100.00;62443.72;5014614;28;20503;-58
2023/12/02 03:06:39;;;;;;;51.60;23.17;;;;;;;-144.57;100.00;62443.72;5014516;28;20412;-55
2023/12/02 03:09:06;;;;;;;54.60;25.15;;;;;;;-144.57;100.00;62443.72;5014099;28;20459;-60
2023/12/02 03:11:32;;;;;;;56.97;25.52;;;;;;;-144.57;100.00;62443.72;5014674;28;20088;-58
2023/12/02 03:13:58;;;;;;;53.35;24.13;;;;;;;-144.57;100.00;62443.72;5014000;28;20048;-58
2023/12/02 03:16:23;;;;;;;47.92;23.75;;;;;;;-144.57;100.00;62443.72;5014370;28;20128;-59
2023/12/02 03:18:49;;;;;;;46.42;21.63;;;;;;;-144.57;100.00;62443.72;5028830;28;20038;-59
2023/12/02 03:21:15;;;;;;;45.70;21.33;;;;;;;-144.57;100.00;62443.72;5011441;28;20173;-59
2023/12/02 03:23:41;;;;;;;48.28;21.80;;;;;;;-144.57;100.00;62443.72;5013794;28;20093;-57
2023/12/02 03:26:07;;;;;;;49.65;22.40;;;;;;;-144.57;100.00;62443.72;5014090;28;20508;-60
2023/12/02 03:28:33;;;;;;;41.03;20.38;;;;;;;-144.57;100.00;62443.72;5014224;28;20054;-57
2023/12/02 03:31:00;;;;;;;49.70;22.58;;;;;;;-144.57;100.00;62443.72;5014274;28;20049;-58
2023/12/02 03:33:26;;;;;;;44.90;21.52;;;;;;;-144.57;100.00;62443.72;5012601;28;20405;-59
2023/12/02 03:35:52;;;;;;;50.60;22.45;;;;;;;-144.57;100.00;62443.72;5013904;28;20049;-59
2023/12/02 03:38:18;;;;;;;45.70;21.00;;;;;;;-144.57;100.00;62443.72;5013458;28;20053;-59
2023/12/02 03:40:43;;;;;;;47.67;21.42;;;;;;;-144.57;100.00;62443.72;5012525;28;20042;-59
2023/12/02 03:43:09;;;;;;;45.45;20.20;;;;;;;-144.57;100.00;62443.72;5012670;28;20046;-58
2023/12/02 03:45:35;;;;;;;47.25;21.50;;;;;;;-144.57;100.00;62443.72;5013615;28;20072;-58
2023/12/02 03:48:00;;;;;;;43.67;22.52;;;;;;;-144.57;100.00;62443.72;5014007;28;20052;-58
2023/12/02 03:50:26;;;;;;;48.42;22.05;;;;;;;-144.57;100.00;62443.72;5013805;28;20128;-59
2023/12/02 03:52:52;;;;;;;47.88;21.13;;;;;;;-144.57;100.00;62443.72;5012477;28;20092;-58
2023/12/02 03:55:20;;;;;;;49.85;22.40;;;;;;;-144.57;100.00;62443.72;5013044;28;20057;-59
2023/12/02 03:57:46;;;;;;;47.78;21.60;;;;;;;-144.57;100.00;62443.72;5014209;28;20049;-56
2023/12/02 04:00:15;;;;;;;48.92;22.90;;;;;;;-144.57;100.00;62443.72;5015042;28;20038;-57
2023/12/02 04:02:41;;;;;;;47.55;21.65;;;;;;;-144.57;100.00;62443.72;5016463;28;20096;-57
2023/12/02 04:05:08;;;;;;;46.75;22.13;;;;;;;-144.57;100.00;62443.72;5014513;28;20038;-57
2023/12/02 04:07:35;;;;;;;52.45;23.20;;;;;;;-144.57;100.00;62443.72;5015779;28;20050;-57
2023/12/02 04:10:02;;;;;;;43.67;20.55;;;;;;;-144.57;100.00;62443.72;5016100;28;20054;-56
2023/12/02 04:12:30;;;;;;;47.20;22.30;;;;;;;-144.57;100.00;62443.72;5015710;28;20093;-55
2023/12/02 04:14:56;;;;;;;46.63;21.08;;;;;;;-144.57;100.00;62443.72;5015305;28;20337;-58
2023/12/02 04:17:22;;;;;;;43.55;19.52;;;;;;;-144.57;100.00;62443.72;5015780;28;20048;-57
2023/12/02 04:19:48;;;;;;;43.85;19.42;;;;;;;-144.57;100.00;62443.72;5015535;28;20057;-61
2023/12/02 04:22:16;;;;;;;44.33;19.95;;;;;;;-144.57;100.00;62443.72;5013109;28;20504;-58
2023/12/02 04:24:41;;;;;;;47.67;21.52;;;;;;;-144.57;100.00;62443.72;5012428;28;20053;-58
2023/12/02 04:27:07;;;;;;;45.08;21.13;;;;;;;-144.57;100.00;62443.72;5011967;28;20061;-58
2023/12/02 04:29:36;;;;;;;46.88;22.17;;;;;;;-144.57;100.00;62443.72;5011988;28;20350;-59
2023/12/02 04:32:06;;;;;;;44.57;20.23;;;;;;;-144.57;100.00;62443.72;5011868;28;20091;-58
2023/12/02 04:34:33;;;;;;;47.20;21.15;;;;;;;-144.57;100.00;62443.72;5027656;28;20046;-57
2023/12/02 04:36:59;;;;;;;40.17;19.13;;;;;;;-144.57;100.00;62443.72;5012626;28;20484;-59
2023/12/02 04:39:25;;;;;;;45.50;20.90;;;;;;;-144.57;100.00;62443.72;5012860;28;20073;-58
2023/12/02 04:41:51;;;;;;;43.75;20.40;;;;;;;-144.57;100.00;62443.72;5013138;28;20046;-58
2023/12/02 04:44:17;;;;;;;44.88;21.40;;;;;;;-144.57;100.00;62443.72;5011623;28;20562;-58
2023/12/02 04:46:43;;;;;;;42.40;18.80;;;;;;;-144.57;100.00;62443.72;5012798;28;20066;-58
2023/12/02 04:49:11;;;;;;;45.55;20.38;;;;;;;-144.57;100.00;62443.72;5012260;28;20046;-57
2023/12/02 04:51:36;;;;;;;41.13;20.05;;;;;;;-144.57;100.00;62443.72;5012364;28;20045;-58
2023/12/02 04:54:02;;;;;;;42.45;20.15;;;;;;;-144.57;100.00;62443.72;5012355;28;20049;-58
2023/12/02 04:56:28;;;;;;;45.35;20.65;;;;;;;-144.57;100.00;62443.72;5012385;28;20535;-59
2023/12/02 04:58:53;;;;;;;41.90;18.73;;;;;;;-144.57;100.00;62443.72;5012556;28;20073;-58
2023/12/02 05:01:19;;;;;;;45.17;19.25;;;;;;;-144.57;100.00;62443.72;5012280;28;20162;-58
2023/12/02 05:03:45;;;;;;;41.90;19.50;;;;;;;-144.57;100.00;62443.72;5012574;28;20538;-57
2023/12/02 05:06:15;;;;;;;36.53;18.63;;;;;;;-144.57;100.00;62443.72;5011210;28;20050;-57
2023/12/02 05:08:44;;;;;;;43.10;19.75;;;;;;;-144.57;100.00;62443.72;5011836;28;20488;-58
2023/12/02 05:11:18;;;;;;;41.17;19.15;;;;;;;-144.57;100.00;62443.72;5012297;28;20046;-59
2023/12/02 05:13:44;;;;;;;38.13;19.00;;;;;;;-144.57;100.00;62443.72;5012251;28;20079;-58
2023/12/02 05:16:10;;;;;;;42.78;19.88;;;;;;;-144.57;100.00;62443.72;5010937;28;20045;-59
2023/12/02 05:18:36;;;;;;;37.47;18.83;;;;;;;-144.57;100.00;62443.72;4994448;28;20042;-57
2023/12/02 05:21:02;;;;;;;41.92;18.77;;;;;;;-144.57;100.00;62443.72;5011895;28;20474;-57
2023/12/02 05:23:28;;;;;;;41.65;19.00;;;;;;;-144.57;100.00;62443.72;5011766;28;20042;-59
2023/12/02 05:25:53;;;;;;;37.50;18.85;;;;;;;-144.57;100.00;62443.72;5011563;28;20494;-61
2023/12/02 05:28:19;;;;;;;44.58;19.25;;;;;;;-144.57;100.00;62443.72;5012016;28;20400;-58
2023/12/02 05:30:45;;;;;;;40.08;19.63;;;;;;;-144.57;100.00;62443.72;5012139;28;20037;-57
2023/12/02 05:33:12;;;;;;;43.60;20.10;;;;;;;-144.57;100.00;62443.72;5011372;28;20053;-57
2023/12/02 05:35:37;;;;;;;40.13;19.25;;;;;;;-144.57;100.00;62443.72;5011708;28;20053;-58
2023/12/02 05:38:03;;;;;;;40.70;19.50;;;;;;;-144.57;100.00;62443.72;5012084;28;20045;-59
2023/12/02 05:40:29;;;;;;;40.75;18.83;;;;;;;-144.57;100.00;62443.72;5026868;28;20050;-64
2023/12/02 05:42:54;;;;;;;41.90;21.98;;;;;;;-144.57;100.00;62443.72;5011236;28;20038;-59
2023/12/02 05:45:20;;;;;;;41.45;19.58;;;;;;;-144.57;100.00;62443.72;5009428;28;20411;-57
2023/12/02 05:47:46;;;;;;;41.88;19.63;;;;;;;-144.57;100.00;62443.72;5011758;28;20041;-58
2023/12/02 05:50:12;;;;;;;37.78;19.23;;;;;;;-144.57;100.00;62443.72;5011750;28;20053;-59
2023/12/02 05:52:37;;;;;;;38.47;18.75;;;;;;;-144.57;100.00;62443.72;5012061;28;20052;-59
2023/12/02 05:55:04;;;;;;;39.08;17.63;;;;;;;-144.57;100.00;62443.72;5011138;28;20133;-58
2023/12/02 05:57:30;;;;;;;38.33;18.85;;;;;;;-144.57;100.00;62443.72;5011481;28;20045;-55
2023/12/02 05:59:56;;;;;;;38.05;18.73;;;;;;;-144.57;100.00;62443.72;5011282;28;20069;-57
2023/12/02 06:02:21;;;;;;;41.00;19.65;;;;;;;-144.57;100.00;62443.72;5010023;28;20042;-57
2023/12/02 06:04:47;;;;;;;38.15;17.55;;;;;;;-144.57;100.00;62443.72;5011239;28;20083;-60
2023/12/02 06:07:13;;;;;;;41.67;18.75;;;;;;;-144.57;100.00;62443.72;5007345;28;20042;-57
2023/12/02 06:09:42;;;;;;;36.92;17.35;;;;;;;-144.57;100.00;62443.72;4992376;28;20045;-59
2023/12/02 06:12:08;;;;;;;38.57;17.90;;;;;;;-144.57;100.00;62443.72;5014101;28;20155;-58
2023/12/02 06:14:34;;;;;;;41.42;18.65;;;;;;;-144.57;100.00;62443.72;5014487;28;20037;-55
2023/12/02 06:16:59;;;;;;;39.58;18.88;;;;;;;-144.57;100.00;62443.72;5014739;28;20459;-60
2023/12/02 06:19:25;;;;;;;37.83;19.33;;;;;;;-144.57;100.00;62443.72;5012838;28;20046;-57
2023/12/02 06:21:51;;;;;;;42.33;18.05;;;;;;;-144.57;100.00;62443.72;5014021;28;20069;-58
2023/12/02 06:24:20;;;;;;;40.88;18.75;;;;;;;-144.57;100.00;62443.72;5013709;28;20486;-57
2023/12/02 06:26:47;;;;;;;39.80;19.13;;;;;;;-144.57;100.00;62443.72;4960138;28;20046;-55
2023/12/02 06:29:13;;;;;;;42.53;19.02;;;;;;;-144.57;100.00;62443.72;5012982;28;20053;-56
2023/12/02 06:31:39;;;;;;;47.35;20.67;;;;;;;-144.57;100.00;62443.72;5013674;28;20049;-59
2023/12/02 06:34:05;;;;;;;44.95;20.50;;;;;;;-144.57;100.00;62443.72;5012012;28;20108;-58
2023/12/02 06:36:30;;;;;;;47.33;20.42;;;;;;;-144.57;100.00;62443.72;5013756;28;20038;-58
2023/12/02 06:38:56;;;;;;;43.05;19.63;;;;;;;-144.57;100.00;62443.72;5012225;28;20408;-56
2023/12/02 06:41:22;;;;;;;43.85;20.13;;;;;;;-144.57;100.00;62443.72;4996237;28;20414;-59
2023/12/02 06:43:48;;;;;;;43.60;19.38;;;;;;;-144.57;100.00;62443.72;5013364;28;20593;-55
2023/12/02 06:46:23;;;;;;;43.90;20.67;;;;;;;-144.57;100.00;62443.72;5014176;28;20042;-58
2023/12/02 06:48:49;;;;;;;52.90;21.70;;;;;;;-144.57;100.00;62443.72;5014238;28;20419;-57
2023/12/02 06:51:16;;;;;;;41.63;20.05;;;;;;;-144.57;100.00;62443.72;5013894;28;20435;-56
2023/12/02 06:53:41;;;;;;;38.40;19.50;;;;;;;-144.57;100.00;62443.72;5013600;28;20038;-58
2023/12/02 06:56:26;;;;;;;47.38;20.15;;;;;;;-144.57;100.00;62443.72;5013187;28;20061;-58
2023/12/02 06:58:52;;;;;;;46.40;20.90;;;;;;;-144.57;100.00;62443.72;5014583;28;20033;-58
2023/12/02 07:01:26;;;;;;;40.08;19.38;;;;;;;-144.57;100.00;62443.72;5014440;28;20373;-57
2023/12/02 07:03:56;;;;;;;43.80;19.35;;;;;;;-144.57;100.00;62443.72;5014295;28;20041;-58
2023/12/02 07:06:22;;;;;;;43.83;19.98;;;;;;;-144.57;100.00;62443.72;5014068;28;20050;-58
2023/12/02 07:08:48;;;;;;;46.97;20.33;;;;;;;-144.57;100.00;62443.72;5013981;28;20037;-58
2023/12/02 07:11:14;;;;;;;45.15;20.65;;;;;;;-144.57;100.00;62443.72;5012507;28;20042;-60
2023/12/02 07:13:40;;;;;;;41.75;19.75;;;;;;;-144.57;100.00;62443.72;5012480;28;20049;-59
2023/12/02 07:16:06;;;;;;;44.60;20.25;;;;;;;-144.57;100.00;62443.72;5012670;28;20053;-59
2023/12/02 07:18:32;;;;;;;46.42;21.42;;;;;;;-144.57;100.00;62443.72;5013741;28;20049;-58
2023/12/02 07:20:58;;;;;;;45.03;20.52;;;;;;;-144.57;100.00;62443.72;5012711;28;20070;-59
2023/12/02 07:23:25;;;;;;;47.65;21.42;;;;;;;-144.57;100.00;62443.72;5013548;28;20045;-59
2023/12/02 07:25:52;;;;;;;42.47;20.27;;;;;;;-144.57;100.00;62443.72;5012334;28;20045;-59
2023/12/02 07:28:17;;;;;;;44.08;19.30;;;;;;;-144.57;100.00;62443.72;5013874;28;20092;-59
2023/12/02 07:30:43;;;;;;;44.25;19.70;;;;;;;-144.57;100.00;62443.72;5013112;28;20463;-59
2023/12/02 07:33:09;;;;;;;41.75;19.63;;;;;;;-144.57;100.00;62443.72;5013388;28;20057;-60
2023/12/02 07:35:34;;;;;;;45.45;21.15;;;;;;;-144.57;100.00;62443.72;5012930;28;20040;-59
2023/12/02 07:38:00;;;;;;;47.22;21.17;;;;;;;-144.57;100.00;62443.72;5013198;28;20042;-59
2023/12/02 07:40:26;;;;;;;42.78;20.23;;;;;;;-144.57;100.00;62443.72;5012975;28;20034;-57
2023/12/02 07:42:51;;;;;;;45.85;20.38;;;;;;;-144.57;100.00;62443.72;5011642;28;20041;-58
2023/12/02 07:45:17;;;;;;;44.88;20.70;;;;;;;-144.57;100.00;62443.72;5028822;28;20041;-60
2023/12/02 07:47:43;;;;;;;48.35;21.52;;;;;;;-144.57;100.00;62443.72;5009815;28;20041;-58
2023/12/02 07:50:09;;;;;;;45.65;20.60;;;;;;;-144.57;100.00;62443.72;4992219;28;20096;-62
2023/12/02 07:52:34;;;;;;;45.63;20.73;;;;;;;-144.57;100.00;62443.72;5004698;28;20407;-59
2023/12/02 07:55:00;;;;;;;53.75;23.73;;;;;;;-144.57;100.00;62443.72;5012918;28;20053;-58
2023/12/02 07:57:26;;;;;;;49.30;21.55;;;;;;;-144.57;100.00;62443.72;5012618;28;20046;-58
2023/12/02 07:59:52;;;;;;;45.88;20.80;;;;;;;-144.57;100.00;62443.72;5013040;28;20129;-57
2023/12/02 08:02:18;;;;;;;45.80;21.00;;;;;;;-144.57;100.00;62443.72;5011157;28;20057;-60
2023/12/02 08:04:43;;;;;;;50.75;21.25;;;;;;;-144.57;100.00;62443.72;5011628;28;20084;-58
2023/12/02 08:07:09;;;;;;;47.47;21.63;;;;;;;-144.57;100.00;62443.72;5011624;28;20072;-58
2023/12/02 08:09:35;;;;;;;48.60;20.27;;;;;;;-144.57;100.00;62443.72;4994928;28;20096;-57
2023/12/02 08:12:01;;;;;;;53.15;22.58;;;;;;;-144.57;100.00;62443.72;5011562;28;20038;-58
2023/12/02 08:14:27;;;;;;;47.50;20.80;;;;;;;-144.57;100.00;62443.72;5011282;28;20046;-57
2023/12/02 08:16:52;;;;;;;46.78;20.70;;;;;;;-144.57;100.00;62443.72;5012369;28;20123;-57
2023/12/02 08:19:18;;;;;;;47.53;21.02;;;;;;;-144.57;100.00;62443.72;5011939;28;20495;-56
2023/12/02 08:21:44;;;;;;;47.20;21.52;;;;;;;-144.57;100.00;62443.72;5010546;28;20057;-59
2023/12/02 08:24:09;;;;;;;46.90;20.60;;;;;;;-144.57;100.00;62443.72;5011864;28;20046;-56
2023/12/02 08:26:35;;;;;;;45.97;20.13;;;;;;;-144.57;100.00;62443.72;5010513;28;20419;-58
2023/12/02 08:29:01;;;;;;;43.65;20.48;;;;;;;-144.57;100.00;62443.72;5009612;28;20042;-53
2023/12/02 08:31:27;;;;;;;51.38;21.23;;;;;;;-144.57;100.00;62443.72;5010787;28;20033;-58
2023/12/02 08:33:52;;;;;;;40.03;18.15;;;;;;;-144.57;100.00;62443.72;5010370;28;20077;-66
2023/12/02 08:36:18;;;;;;;45.42;19.00;;;;;;;-144.57;100.00;62443.72;5011542;28;20052;-53
2023/12/02 08:38:44;;;;;;;41.08;18.48;;;;;;;-144.57;100.00;62443.72;5011760;28;20037;-65
2023/12/02 08:41:11;;;;;;;40.47;19.23;;;;;;;-144.57;100.00;62443.72;5011534;28;20052;-57
2023/12/02 08:43:37;;;;;;;39.58;18.20;;;;;;;-144.57;100.00;62443.72;5010193;28;20038;-56
2023/12/02 08:46:02;;;;;;;39.00;18.17;;;;;;;-144.57;100.00;62443.72;5011629;28;20037;-56
2023/12/02 08:48:28;;;;;;;40.15;18.27;;;;;;;-144.57;100.00;62443.72;5011587;28;20077;-55
2023/12/02 08:50:54;;;;;;;39.63;19.40;;;;;;;-144.57;100.00;62443.72;5010711;28;20045;-60
2023/12/02 08:53:20;;;;;;;40.35;17.65;;;;;;;-144.57;100.00;62443.72;4999043;28;20057;-57
2023/12/02 08:55:46;;;;;;;34.08;16.65;;;;;;;-144.57;100.00;62443.72;5002920;28;20049;-57
2023/12/02 08:58:12;;;;;;;34.28;16.00;;;;;;;-144.57;100.00;62443.72;5004982;28;20042;-55
2023/12/02 09:00:37;;;;;;;38.15;16.77;;;;;;;-144.57;100.00;62443.72;5008940;28;20449;-57
2023/12/02 09:03:03;;;;;;;38.13;19.10;;;;;;;-144.57;100.00;62443.72;5011672;28;20049;-58
2023/12/02 09:05:30;;;;;;;42.35;17.92;;;;;;;-144.57;100.00;62443.72;5009230;28;20049;-57
2023/12/02 09:07:56;;;;;;;40.88;18.25;;;;;;;-144.57;100.00;62443.72;5006572;28;20041;-58
2023/12/02 09:10:23;;;;;;;38.72;17.08;;;;;;;-144.57;100.00;62443.72;5007112;28;20042;-59
2023/12/02 09:12:49;;;;;;;41.70;18.48;;;;;;;-144.57;100.00;62443.72;5012547;28;20065;-57
2023/12/02 09:15:15;;;;;;;41.83;17.58;;;;;;;-144.57;100.00;62443.72;5009074;28;20419;-56
2023/12/02 09:18:07;;;;;;;35.20;16.95;;;;;;;-144.57;100.00;62443.72;5009627;28;20046;-55
2023/12/02 09:20:45;;;;;;;32.95;16.33;;;;;;;-144.57;100.00;62443.72;5005786;28;20068;-58
2023/12/02 09:23:12;;;;;;;30.60;15.75;;;;;;;-144.57;100.00;62443.72;5010216;28;20203;-56
2023/12/02 09:25:39;;;;;;;29.45;13.88;;;;;;;-144.57;100.00;62443.72;5009676;28;20100;-55
2023/12/02 09:28:05;;;;;;;29.75;14.55;;;;;;;-144.57;100.00;62443.72;5010916;28;20041;-58
2023/12/02 09:30:35;;;;;;;31.13;14.95;;;;;;;-144.57;100.00;62443.72;5009319;28;20046;-57
2023/12/02 09:33:04;;;;;;;30.38;14.27;;;;;;;-144.57;100.00;62443.72;5006375;28;20073;-61
2023/12/02 09:35:30;;;;;;;31.23;14.18;;;;;;;-144.57;100.00;62443.72;4994306;28;20045;-57
2023/12/02 09:38:03;;;;;;;29.13;14.68;;;;;;;-144.57;100.00;62443.72;4992818;28;20523;-57
2023/12/02 09:40:53;;;;;;;29.45;14.55;;;;;;;-144.57;100.00;62443.72;5010159;28;20108;-55
2023/12/02 09:43:41;;;;;;;32.08;14.30;;;;;;;-144.57;100.00;62443.72;5011435;28;20045;-57
2023/12/02 09:46:28;;;;;;;30.83;15.20;;;;;;;-144.57;100.00;62443.72;4980222;28;20283;-57
2023/12/02 09:49:06;;;;;;;30.80;14.45;;;;;;;-144.57;100.00;62443.72;4993833;28;20050;-58
2023/12/02 09:51:55;;;;;;;30.00;14.18;;;;;;;-144.57;100.00;62443.72;5009091;28;20065;-57
2023/12/02 09:54:38;;;;;;;39.33;15.88;;;;;;;-144.57;100.00;62443.72;4990568;28;20085;-57
2023/12/02 09:57:29;;;;;;;27.98;14.65;;;;;;;-144.57;100.00;62443.72;5010989;28;20053;-58
2023/12/02 10:00:08;;;;;;;34.15;15.55;;;;;;;-144.57;100.00;62443.72;5023846;28;20431;-57
2023/12/02 10:02:45;;;;;;;30.40;14.55;;;;;;;-144.57;100.00;62443.72;5010754;28;20092;-62
2023/12/02 10:05:12;;;;;;;32.45;16.15;;;;;;;-144.57;100.00;62443.72;4993116;28;20054;-56
2023/12/02 10:07:50;;;;;;;34.72;16.88;;;;;;;-144.57;100.00;62443.72;5009849;28;20037;-56
2023/12/02 10:10:25;;;;;;;35.00;16.58;;;;;;;-144.57;100.00;62443.72;5009323;28;20419;-58
2023/12/02 10:13:10;;;;;;;32.75;15.98;;;;;;;-144.57;100.00;62443.72;5025725;28;20132;-57
2023/12/02 10:15:38;;;;;;;37.58;16.83;;;;;;;-144.57;100.00;62443.72;5010045;28;20050;-57
2023/12/02 10:18:12;;;;;;;32.35;15.15;;;;;;;-144.57;100.00;62443.72;5009116;28;20533;-59
2023/12/02 10:20:42;;;;;;;38.15;18.30;;;;;;;-144.57;100.00;62443.72;5015044;28;20061;-58
2023/12/02 10:23:29;;;;;;;29.10;15.30;;;;;;;-144.57;100.00;62443.72;5014818;28;20045;-62
2023/12/02 10:26:01;;;;;;;31.92;15.88;;;;;;;-144.57;100.00;62443.72;5010142;28;20057;-59
2023/12/02 10:28:56;;;;;;;31.10;15.63;;;;;;;-144.57;100.00;62443.72;5022495;28;20123;-56
2023/12/02 10:31:27;;;;;;;28.10;14.88;;;;;;;-144.57;100.00;62443.72;5000145;28;20070;-57
2023/12/02 10:34:15;;;;;;;30.65;15.35;;;;;;;-144.57;100.00;62443.72;5009085;28;20041;-58
2023/12/02 10:36:43;;;;;;;32.42;15.23;;;;;;;-144.57;100.00;62443.72;5036932;28;20056;-57
2023/12/02 10:39:10;;;;;;;30.15;14.73;;;;;;;-144.57;100.00;62443.72;5011814;28;20523;-59
2023/12/02 10:41:52;;;;;;;29.52;14.52;;;;;;;-144.57;100.00;62443.72;5008786;28;20046;-56
2023/12/02 10:44:20;;;;;;;30.83;16.15;;;;;;;-144.57;100.00;62443.72;4976406;28;20388;-57
2023/12/02 10:46:48;;;;;;;27.85;14.20;;;;;;;-144.57;100.00;62443.72;5009367;28;20053;-58
2023/12/02 10:49:14;;;;;;;30.42;15.43;;;;;;;-144.57;100.00;62443.72;4992796;28;20202;-57
2023/12/02 10:51:41;;;;;;;28.58;15.27;;;;;;;-144.57;100.00;62443.72;5008577;28;20077;-59
2023/12/02 10:54:08;;;;;;;26.25;13.60;;;;;;;-144.57;100.00;62443.72;5009941;28;20515;-60
2023/12/02 10:56:37;;;;;;;31.85;14.77;;;;;;;-144.57;100.00;62443.72;4994680;28;20053;-60